sensor_id;sensor_type;location;lat;lon;timestamp;P1;durP1;ratioP1;P2;durP2;ratioP2
38851;SDS011;24605;50.092;9.182;2023-12-04T00:01:31;36.90;;;15.82;;
38851;SDS011;24605;50.092;9.182;2023-12-04T00:03:57;41.30;;;18.08;;
38851;SDS011;24605;50.092;9.182;2023-12-04T00:06:24;41.20;;;17.30;;
38851;SDS011;24605;50.092;9.182;2023-12-04T00:08:50;39.30;;;17.45;;
38851;SDS011;24605;50.092;9.182;2023-12-04T00:11:17;37.33;;;16.35;;
38851;SDS011;24605;50.092;9.182;2023-12-04T00:13:43;40.15;;;17.15;;
38851;SDS011;24605;50.092;9.182;2023-12-04T00:16:10;40.85;;;15.93;;
38851;SDS011;24605;50.092;9.182;2023-12-04T00:18:38;44.25;;;17.92;;
38851;SDS011;24605;50.092;9.182;2023-12-04T00:21:04;38.38;;;16.20;;
38851;SDS011;24605;50.092;9.182;2023-12-04T00:23:31;40.88;;;17.38;;
38851;SDS011;24605;50.092;9.182;2023-12-04T00:25:58;37.58;;;16.20;;
38851;SDS011;24605;50.092;9.182;2023-12-04T00:28:24;41.60;;;16.73;;
38851;SDS011;24605;50.092;9.182;2023-12-04T00:30:50;40.80;;;16.10;;
38851;SDS011;24605;50.092;9.182;2023-12-04T00:33:17;39.67;;;16.95;;
38851;SDS011;24605;50.092;9.182;2023-12-04T00:35:45;39.60;;;16.75;;
38851;SDS011;24605;50.092;9.182;2023-12-04T00:38:11;36.00;;;16.08;;
38851;SDS011;24605;50.092;9.182;2023-12-04T00:40:38;36.28;;;15.50;;
38851;SDS011;24605;50.092;9.182;2023-12-04T00:43:04;34.80;;;15.25;;
38851;SDS011;24605;50.092;9.182;2023-12-04T00:45:30;39.40;;;16.02;;
38851;SDS011;24605;50.092;9.182;2023-12-04T00:47:57;34.50;;;14.82;;
38851;SDS011;24605;50.092;9.182;2023-12-04T00:50:23;35.92;;;15.02;;
38851;SDS011;24605;50.092;9.182;2023-12-04T00:52:51;35.08;;;15.43;;
38851;SDS011;24605;50.092;9.182;2023-12-04T00:55:17;37.08;;;15.90;;
38851;SDS011;24605;50.092;9.182;2023-12-04T00:57:45;38.20;;;15.20;;
38851;SDS011;24605;50.092;9.182;2023-12-04T01:00:12;36.88;;;16.17;;
38851;SDS011;24605;50.092;9.182;2023-12-04T01:02:39;39.88;;;15.95;;
38851;SDS011;24605;50.092;9.182;2023-12-04T01:05:06;43.13;;;15.95;;
38851;SDS011;24605;50.092;9.182;2023-12-04T01:07:32;38.55;;;15.38;;
38851;SDS011;24605;50.092;9.182;2023-12-04T01:10:00;33.08;;;15.15;;
38851;SDS011;24605;50.092;9.182;2023-12-04T01:12:27;35.78;;;14.48;;
38851;SDS011;24605;50.092;9.182;2023-12-04T01:14:53;35.38;;;15.38;;
38851;SDS011;24605;50.092;9.182;2023-12-04T01:17:20;39.22;;;15.38;;
38851;SDS011;24605;50.092;9.182;2023-12-04T01:19:46;33.55;;;14.82;;
38851;SDS011;24605;50.092;9.182;2023-12-04T01:22:13;39.45;;;15.98;;
38851;SDS011;24605;50.092;9.182;2023-12-04T01:24:39;37.80;;;16.13;;
38851;SDS011;24605;50.092;9.182;2023-12-04T01:27:07;38.72;;;16.27;;
38851;SDS011;24605;50.092;9.182;2023-12-04T01:29:33;39.33;;;15.75;;
38851;SDS011;24605;50.092;9.182;2023-12-04T01:32:00;40.13;;;15.88;;
38851;SDS011;24605;50.092;9.182;2023-12-04T01:34:26;38.58;;;15.63;;
38851;SDS011;24605;50.092;9.182;2023-12-04T01:36:53;38.35;;;15.32;;
38851;SDS011;24605;50.092;9.182;2023-12-04T01:39:19;40.63;;;16.27;;
38851;SDS011;24605;50.092;9.182;2023-12-04T01:41:46;40.78;;;16.98;;
38851;SDS011;24605;50.092;9.182;2023-12-04T01:44:13;39.03;;;16.10;;
38851;SDS011;24605;50.092;9.182;2023-12-04T01:46:40;41.53;;;16.65;;
38851;SDS011;24605;50.092;9.182;2023-12-04T01:49:08;38.55;;;15.75;;
38851;SDS011;24605;50.092;9.182;2023-12-04T01:51:35;35.20;;;14.25;;
38851;SDS011;24605;50.092;9.182;2023-12-04T01:54:02;39.60;;;15.57;;
38851;SDS011;24605;50.092;9.182;2023-12-04T01:56:29;40.30;;;14.48;;
38851;SDS011;24605;50.092;9.182;2023-12-04T01:58:56;36.38;;;15.25;;
38851;SDS011;24605;50.092;9.182;2023-12-04T02:01:24;37.75;;;15.07;;
38851;SDS011;24605;50.092;9.182;2023-12-04T02:03:52;36.72;;;15.45;;
38851;SDS011;24605;50.092;9.182;2023-12-04T02:06:21;37.22;;;15.88;;
38851;SDS011;24605;50.092;9.182;2023-12-04T02:08:47;38.03;;;16.05;;
38851;SDS011;24605;50.092;9.182;2023-12-04T02:11:14;35.35;;;14.35;;
38851;SDS011;24605;50.092;9.182;2023-12-04T02:13:40;38.58;;;15.68;;
38851;SDS011;24605;50.092;9.182;2023-12-04T02:16:09;35.50;;;14.75;;
38851;SDS011;24605;50.092;9.182;2023-12-04T02:18:37;37.17;;;16.10;;
38851;SDS011;24605;50.092;9.182;2023-12-04T02:21:05;35.30;;;15.32;;
38851;SDS011;24605;50.092;9.182;2023-12-04T02:23:32;38.92;;;15.77;;
38851;SDS011;24605;50.092;9.182;2023-12-04T02:26:01;41.22;;;15.98;;
38851;SDS011;24605;50.092;9.182;2023-12-04T02:28:34;40.17;;;15.77;;
38851;SDS011;24605;50.092;9.182;2023-12-04T02:31:03;37.67;;;15.88;;
38851;SDS011;24605;50.092;9.182;2023-12-04T02:33:31;37.38;;;15.40;;
38851;SDS011;24605;50.092;9.182;2023-12-04T02:35:59;35.38;;;15.02;;
38851;SDS011;24605;50.092;9.182;2023-12-04T02:38:28;37.83;;;16.27;;
38851;SDS011;24605;50.092;9.182;2023-12-04T02:40:55;38.10;;;16.00;;
38851;SDS011;24605;50.092;9.182;2023-12-04T02:43:23;40.17;;;15.48;;
38851;SDS011;24605;50.092;9.182;2023-12-04T02:45:50;37.45;;;15.73;;
38851;SDS011;24605;50.092;9.182;2023-12-04T02:48:16;33.63;;;14.90;;
38851;SDS011;24605;50.092;9.182;2023-12-04T02:50:42;36.53;;;15.07;;
38851;SDS011;24605;50.092;9.182;2023-12-04T02:53:09;36.90;;;16.73;;
38851;SDS011;24605;50.092;9.182;2023-12-04T02:55:35;37.72;;;15.43;;
38851;SDS011;24605;50.092;9.182;2023-12-04T02:58:02;40.03;;;16.67;;
38851;SDS011;24605;50.092;9.182;2023-12-04T03:00:30;36.60;;;16.05;;
38851;SDS011;24605;50.092;9.182;2023-12-04T03:02:56;36.08;;;15.52;;
38851;SDS011;24605;50.092;9.182;2023-12-04T03:05:22;32.97;;;14.82;;
38851;SDS011;24605;50.092;9.182;2023-12-04T03:07:49;30.27;;;13.45;;
38851;SDS011;24605;50.092;9.182;2023-12-04T03:10:15;39.40;;;15.38;;
38851;SDS011;24605;50.092;9.182;2023-12-04T03:12:42;35.45;;;15.20;;
38851;SDS011;24605;50.092;9.182;2023-12-04T03:15:08;33.08;;;14.43;;
38851;SDS011;24605;50.092;9.182;2023-12-04T03:17:37;32.92;;;14.60;;
38851;SDS011;24605;50.092;9.182;2023-12-04T03:20:04;40.15;;;15.25;;
38851;SDS011;24605;50.092;9.182;2023-12-04T03:22:33;37.65;;;14.68;;
38851;SDS011;24605;50.092;9.182;2023-12-04T03:25:00;37.83;;;15.70;;
38851;SDS011;24605;50.092;9.182;2023-12-04T03:27:26;35.55;;;15.80;;
38851;SDS011;24605;50.092;9.182;2023-12-04T03:29:53;35.63;;;15.88;;
38851;SDS011;24605;50.092;9.182;2023-12-04T03:32:19;37.28;;;15.35;;
38851;SDS011;24605;50.092;9.182;2023-12-04T03:34:47;33.90;;;13.98;;
38851;SDS011;24605;50.092;9.182;2023-12-04T03:37:13;34.85;;;15.00;;
38851;SDS011;24605;50.092;9.182;2023-12-04T03:39:40;33.88;;;13.98;;
38851;SDS011;24605;50.092;9.182;2023-12-04T03:42:06;35.00;;;14.52;;
38851;SDS011;24605;50.092;9.182;2023-12-04T03:44:33;36.80;;;14.63;;
38851;SDS011;24605;50.092;9.182;2023-12-04T03:46:59;33.28;;;13.75;;
38851;SDS011;24605;50.092;9.182;2023-12-04T03:49:25;37.03;;;14.68;;
38851;SDS011;24605;50.092;9.182;2023-12-04T03:51:53;31.02;;;13.75;;
38851;SDS011;24605;50.092;9.182;2023-12-04T03:54:20;34.75;;;14.35;;
38851;SDS011;24605;50.092;9.182;2023-12-04T03:56:46;33.08;;;14.13;;
38851;SDS011;24605;50.092;9.182;2023-12-04T03:59:13;35.78;;;14.25;;
38851;SDS011;24605;50.092;9.182;2023-12-04T04:01:39;34.30;;;15.00;;
38851;SDS011;24605;50.092;9.182;2023-12-04T04:04:06;30.70;;;13.68;;
38851;SDS011;24605;50.092;9.182;2023-12-04T04:06:32;29.17;;;13.27;;
38851;SDS011;24605;50.092;9.182;2023-12-04T04:09:00;30.83;;;12.73;;
38851;SDS011;24605;50.092;9.182;2023-12-04T04:11:26;33.42;;;14.20;;
38851;SDS011;24605;50.092;9.182;2023-12-04T04:13:53;47.67;;;23.35;;
38851;SDS011;24605;50.092;9.182;2023-12-04T04:16:19;29.02;;;14.43;;
38851;SDS011;24605;50.092;9.182;2023-12-04T04:18:46;31.48;;;14.13;;
38851;SDS011;24605;50.092;9.182;2023-12-04T04:21:12;30.30;;;13.90;;
38851;SDS011;24605;50.092;9.182;2023-12-04T04:23:38;28.48;;;12.65;;
38851;SDS011;24605;50.092;9.182;2023-12-04T04:26:06;31.25;;;12.88;;
38851;SDS011;24605;50.092;9.182;2023-12-04T04:28:33;31.08;;;13.15;;
38851;SDS011;24605;50.092;9.182;2023-12-04T04:30:59;31.65;;;13.18;;
38851;SDS011;24605;50.092;9.182;2023-12-04T04:33:26;31.67;;;13.32;;
38851;SDS011;24605;50.092;9.182;2023-12-04T04:35:52;30.73;;;13.15;;
38851;SDS011;24605;50.092;9.182;2023-12-04T04:38:18;28.98;;;12.60;;
38851;SDS011;24605;50.092;9.182;2023-12-04T04:40:45;29.83;;;12.57;;
38851;SDS011;24605;50.092;9.182;2023-12-04T04:43:13;30.38;;;12.43;;
38851;SDS011;24605;50.092;9.182;2023-12-04T04:45:39;29.67;;;12.75;;
38851;SDS011;24605;50.092;9.182;2023-12-04T04:48:05;31.20;;;12.02;;
38851;SDS011;24605;50.092;9.182;2023-12-04T04:50:32;27.65;;;11.88;;
38851;SDS011;24605;50.092;9.182;2023-12-04T04:52:58;26.15;;;11.85;;
38851;SDS011;24605;50.092;9.182;2023-12-04T04:55:25;28.90;;;12.18;;
38851;SDS011;24605;50.092;9.182;2023-12-04T04:57:51;31.77;;;13.80;;
38851;SDS011;24605;50.092;9.182;2023-12-04T05:00:19;26.00;;;12.38;;
38851;SDS011;24605;50.092;9.182;2023-12-04T05:02:45;28.48;;;12.32;;
38851;SDS011;24605;50.092;9.182;2023-12-04T05:05:12;28.83;;;13.23;;
38851;SDS011;24605;50.092;9.182;2023-12-04T05:07:39;27.85;;;12.52;;
38851;SDS011;24605;50.092;9.182;2023-12-04T05:10:05;26.05;;;11.40;;
38851;SDS011;24605;50.092;9.182;2023-12-04T05:12:32;23.67;;;10.90;;
38851;SDS011;24605;50.092;9.182;2023-12-04T05:14:58;24.85;;;11.45;;
38851;SDS011;24605;50.092;9.182;2023-12-04T05:17:26;24.73;;;11.65;;
38851;SDS011;24605;50.092;9.182;2023-12-04T05:19:53;25.40;;;11.80;;
38851;SDS011;24605;50.092;9.182;2023-12-04T05:22:19;25.98;;;11.70;;
38851;SDS011;24605;50.092;9.182;2023-12-04T05:24:45;26.73;;;11.10;;
38851;SDS011;24605;50.092;9.182;2023-12-04T05:27:12;27.38;;;11.57;;
38851;SDS011;24605;50.092;9.182;2023-12-04T05:29:38;28.30;;;12.10;;
38851;SDS011;24605;50.092;9.182;2023-12-04T05:32:05;24.75;;;11.13;;
38851;SDS011;24605;50.092;9.182;2023-12-04T05:34:33;24.75;;;11.15;;
38851;SDS011;24605;50.092;9.182;2023-12-04T05:36:59;24.52;;;11.15;;
38851;SDS011;24605;50.092;9.182;2023-12-04T05:39:26;24.13;;;11.15;;
38851;SDS011;24605;50.092;9.182;2023-12-04T05:41:52;25.38;;;10.88;;
38851;SDS011;24605;50.092;9.182;2023-12-04T05:44:19;24.65;;;11.02;;
38851;SDS011;24605;50.092;9.182;2023-12-04T05:46:46;24.15;;;11.10;;
38851;SDS011;24605;50.092;9.182;2023-12-04T05:49:12;24.95;;;11.05;;
38851;SDS011;24605;50.092;9.182;2023-12-04T05:51:40;27.77;;;10.73;;
38851;SDS011;24605;50.092;9.182;2023-12-04T05:54:07;28.20;;;11.18;;
38851;SDS011;24605;50.092;9.182;2023-12-04T05:56:34;24.13;;;11.13;;
38851;SDS011;24605;50.092;9.182;2023-12-04T05:59:00;21.20;;;10.13;;
38851;SDS011;24605;50.092;9.182;2023-12-04T06:01:28;26.02;;;11.15;;
38851;SDS011;24605;50.092;9.182;2023-12-04T06:03:54;24.45;;;11.40;;
38851;SDS011;24605;50.092;9.182;2023-12-04T06:06:21;23.85;;;10.65;;
38851;SDS011;24605;50.092;9.182;2023-12-04T06:08:49;23.13;;;10.32;;
38851;SDS011;24605;50.092;9.182;2023-12-04T06:11:15;24.48;;;10.63;;
38851;SDS011;24605;50.092;9.182;2023-12-04T06:13:42;25.02;;;11.02;;
38851;SDS011;24605;50.092;9.182;2023-12-04T06:16:07;22.70;;;10.38;;
38851;SDS011;24605;50.092;9.182;2023-12-04T06:18:34;23.23;;;10.45;;
38851;SDS011;24605;50.092;9.182;2023-12-04T06:21:01;26.23;;;10.90;;
38851;SDS011;24605;50.092;9.182;2023-12-04T06:23:28;23.63;;;10.75;;
38851;SDS011;24605;50.092;9.182;2023-12-04T06:25:56;23.42;;;10.25;;
38851;SDS011;24605;50.092;9.182;2023-12-04T06:28:23;22.27;;;10.05;;
38851;SDS011;24605;50.092;9.182;2023-12-04T06:30:51;23.48;;;10.63;;
38851;SDS011;24605;50.092;9.182;2023-12-04T06:33:18;29.67;;;13.30;;
38851;SDS011;24605;50.092;9.182;2023-12-04T06:35:45;29.40;;;13.10;;
38851;SDS011;24605;50.092;9.182;2023-12-04T06:38:13;22.58;;;10.45;;
38851;SDS011;24605;50.092;9.182;2023-12-04T06:40:42;27.67;;;10.32;;
38851;SDS011;24605;50.092;9.182;2023-12-04T06:43:10;26.30;;;11.57;;
38851;SDS011;24605;50.092;9.182;2023-12-04T06:45:37;24.90;;;11.48;;
38851;SDS011;24605;50.092;9.182;2023-12-04T06:48:05;23.05;;;10.40;;
38851;SDS011;24605;50.092;9.182;2023-12-04T06:50:33;23.25;;;10.23;;
38851;SDS011;24605;50.092;9.182;2023-12-04T06:53:00;23.02;;;10.55;;
38851;SDS011;24605;50.092;9.182;2023-12-04T06:55:26;24.63;;;10.63;;
38851;SDS011;24605;50.092;9.182;2023-12-04T06:57:53;23.95;;;11.00;;
38851;SDS011;24605;50.092;9.182;2023-12-04T07:00:21;25.15;;;11.02;;
38851;SDS011;24605;50.092;9.182;2023-12-04T07:02:47;26.35;;;10.88;;
38851;SDS011;24605;50.092;9.182;2023-12-04T07:05:14;24.40;;;10.88;;
38851;SDS011;24605;50.092;9.182;2023-12-04T07:07:41;24.90;;;11.63;;
38851;SDS011;24605;50.092;9.182;2023-12-04T07:10:08;27.45;;;11.23;;
38851;SDS011;24605;50.092;9.182;2023-12-04T07:12:38;26.42;;;11.18;;
38851;SDS011;24605;50.092;9.182;2023-12-04T07:15:05;24.00;;;11.18;;
38851;SDS011;24605;50.092;9.182;2023-12-04T07:17:33;24.35;;;10.65;;
38851;SDS011;24605;50.092;9.182;2023-12-04T07:20:00;24.38;;;10.65;;
38851;SDS011;24605;50.092;9.182;2023-12-04T07:22:26;28.10;;;12.20;;
38851;SDS011;24605;50.092;9.182;2023-12-04T07:24:53;23.70;;;11.02;;
38851;SDS011;24605;50.092;9.182;2023-12-04T07:27:20;24.75;;;11.05;;
38851;SDS011;24605;50.092;9.182;2023-12-04T07:29:46;26.15;;;10.75;;
38851;SDS011;24605;50.092;9.182;2023-12-04T07:32:13;22.75;;;10.13;;
38851;SDS011;24605;50.092;9.182;2023-12-04T07:34:41;25.42;;;10.45;;
38851;SDS011;24605;50.092;9.182;2023-12-04T07:37:07;23.85;;;11.32;;
38851;SDS011;24605;50.092;9.182;2023-12-04T07:39:34;23.20;;;10.50;;
38851;SDS011;24605;50.092;9.182;2023-12-04T07:42:00;31.48;;;13.30;;
38851;SDS011;24605;50.092;9.182;2023-12-04T07:44:27;21.85;;;9.75;;
38851;SDS011;24605;50.092;9.182;2023-12-04T07:46:53;23.27;;;10.55;;
38851;SDS011;24605;50.092;9.182;2023-12-04T07:49:20;22.83;;;10.40;;
38851;SDS011;24605;50.092;9.182;2023-12-04T07:51:47;21.92;;;9.93;;
38851;SDS011;24605;50.092;9.182;2023-12-04T07:54:14;21.48;;;10.25;;
38851;SDS011;24605;50.092;9.182;2023-12-04T07:56:40;25.45;;;11.07;;
38851;SDS011;24605;50.092;9.182;2023-12-04T07:59:07;25.48;;;11.48;;
38851;SDS011;24605;50.092;9.182;2023-12-04T08:01:34;23.58;;;10.55;;
38851;SDS011;24605;50.092;9.182;2023-12-04T08:04:01;24.15;;;10.40;;
38851;SDS011;24605;50.092;9.182;2023-12-04T08:06:27;21.55;;;10.63;;
38851;SDS011;24605;50.092;9.182;2023-12-04T08:08:54;30.30;;;14.05;;
38851;SDS011;24605;50.092;9.182;2023-12-04T08:11:21;24.27;;;10.82;;
38851;SDS011;24605;50.092;9.182;2023-12-04T08:13:47;29.38;;;13.52;;
38851;SDS011;24605;50.092;9.182;2023-12-04T08:16:14;25.75;;;12.32;;
38851;SDS011;24605;50.092;9.182;2023-12-04T08:18:41;26.52;;;12.93;;
38851;SDS011;24605;50.092;9.182;2023-12-04T08:21:08;26.23;;;12.65;;
38851;SDS011;24605;50.092;9.182;2023-12-04T08:23:35;22.02;;;12.00;;
38851;SDS011;24605;50.092;9.182;2023-12-04T08:26:03;23.95;;;11.60;;
38851;SDS011;24605;50.092;9.182;2023-12-04T08:28:30;22.33;;;10.82;;
38851;SDS011;24605;50.092;9.182;2023-12-04T08:30:57;22.65;;;10.82;;
38851;SDS011;24605;50.092;9.182;2023-12-04T08:33:23;23.55;;;10.43;;
38851;SDS011;24605;50.092;9.182;2023-12-04T08:35:49;24.45;;;10.63;;
38851;SDS011;24605;50.092;9.182;2023-12-04T08:38:16;24.30;;;11.23;;
38851;SDS011;24605;50.092;9.182;2023-12-04T08:40:43;23.08;;;10.20;;
38851;SDS011;24605;50.092;9.182;2023-12-04T08:43:11;21.90;;;10.25;;
38851;SDS011;24605;50.092;9.182;2023-12-04T08:45:37;21.73;;;10.60;;
38851;SDS011;24605;50.092;9.182;2023-12-04T08:48:07;23.60;;;10.85;;
38851;SDS011;24605;50.092;9.182;2023-12-04T08:50:34;23.25;;;10.98;;
38851;SDS011;24605;50.092;9.182;2023-12-04T08:53:01;23.98;;;11.63;;
38851;SDS011;24605;50.092;9.182;2023-12-04T08:55:28;24.52;;;11.15;;
38851;SDS011;24605;50.092;9.182;2023-12-04T08:57:55;28.38;;;11.68;;
38851;SDS011;24605;50.092;9.182;2023-12-04T09:00:23;24.35;;;12.27;;
38851;SDS011;24605;50.092;9.182;2023-12-04T09:02:49;23.30;;;10.18;;
38851;SDS011;24605;50.092;9.182;2023-12-04T09:05:16;19.90;;;9.57;;
38851;SDS011;24605;50.092;9.182;2023-12-04T09:07:42;24.60;;;10.75;;
38851;SDS011;24605;50.092;9.182;2023-12-04T09:10:09;20.98;;;9.88;;
38851;SDS011;24605;50.092;9.182;2023-12-04T09:12:35;21.88;;;10.90;;
38851;SDS011;24605;50.092;9.182;2023-12-04T09:15:03;20.65;;;10.13;;
38851;SDS011;24605;50.092;9.182;2023-12-04T09:17:32;21.05;;;10.13;;
38851;SDS011;24605;50.092;9.182;2023-12-04T09:19:58;22.23;;;10.23;;
38851;SDS011;24605;50.092;9.182;2023-12-04T09:22:25;27.02;;;12.95;;
38851;SDS011;24605;50.092;9.182;2023-12-04T09:24:51;24.20;;;11.13;;
38851;SDS011;24605;50.092;9.182;2023-12-04T09:27:18;25.52;;;11.88;;
38851;SDS011;24605;50.092;9.182;2023-12-04T09:29:44;37.78;;;15.07;;
38851;SDS011;24605;50.092;9.182;2023-12-04T09:32:10;36.53;;;15.30;;
38851;SDS011;24605;50.092;9.182;2023-12-04T09:34:38;21.00;;;9.52;;
38851;SDS011;24605;50.092;9.182;2023-12-04T09:37:05;21.88;;;10.60;;
38851;SDS011;24605;50.092;9.182;2023-12-04T09:39:32;20.38;;;10.60;;
38851;SDS011;24605;50.092;9.182;2023-12-04T09:41:59;20.85;;;9.30;;
38851;SDS011;24605;50.092;9.182;2023-12-04T09:44:27;21.95;;;9.65;;
38851;SDS011;24605;50.092;9.182;2023-12-04T09:46:55;23.45;;;12.82;;
38851;SDS011;24605;50.092;9.182;2023-12-04T09:49:22;19.10;;;8.88;;
38851;SDS011;24605;50.092;9.182;2023-12-04T09:51:50;19.45;;;9.38;;
38851;SDS011;24605;50.092;9.182;2023-12-04T09:54:17;19.38;;;8.90;;
38851;SDS011;24605;50.092;9.182;2023-12-04T09:56:44;16.95;;;8.57;;
38851;SDS011;24605;50.092;9.182;2023-12-04T09:59:11;18.30;;;9.23;;
38851;SDS011;24605;50.092;9.182;2023-12-04T10:01:39;18.75;;;9.63;;
38851;SDS011;24605;50.092;9.182;2023-12-04T10:04:06;17.90;;;8.90;;
38851;SDS011;24605;50.092;9.182;2023-12-04T10:06:34;17.63;;;9.23;;
38851;SDS011;24605;50.092;9.182;2023-12-04T10:09:04;18.80;;;9.43;;
38851;SDS011;24605;50.092;9.182;2023-12-04T10:11:38;18.10;;;8.90;;
38851;SDS011;24605;50.092;9.182;2023-12-04T10:14:09;17.38;;;8.73;;
38851;SDS011;24605;50.092;9.182;2023-12-04T10:19:17;20.00;;;9.65;;
38851;SDS011;24605;50.092;9.182;2023-12-04T10:21:46;23.25;;;10.30;;
38851;SDS011;24605;50.092;9.182;2023-12-04T10:24:26;21.92;;;10.07;;
38851;SDS011;24605;50.092;9.182;2023-12-04T10:26:53;20.33;;;8.93;;
38851;SDS011;24605;50.092;9.182;2023-12-04T10:29:21;19.63;;;9.75;;
38851;SDS011;24605;50.092;9.182;2023-12-04T10:31:48;19.95;;;10.48;;
38851;SDS011;24605;50.092;9.182;2023-12-04T10:34:17;19.92;;;8.93;;
38851;SDS011;24605;50.092;9.182;2023-12-04T10:36:44;18.38;;;8.52;;
38851;SDS011;24605;50.092;9.182;2023-12-04T10:39:11;16.60;;;8.55;;
38851;SDS011;24605;50.092;9.182;2023-12-04T10:41:40;19.50;;;8.77;;
38851;SDS011;24605;50.092;9.182;2023-12-04T10:44:07;18.45;;;8.48;;
38851;SDS011;24605;50.092;9.182;2023-12-04T10:46:34;18.75;;;8.63;;
38851;SDS011;24605;50.092;9.182;2023-12-04T10:49:02;18.40;;;8.48;;
38851;SDS011;24605;50.092;9.182;2023-12-04T10:51:30;22.27;;;10.25;;
38851;SDS011;24605;50.092;9.182;2023-12-04T10:53:56;19.52;;;9.55;;
38851;SDS011;24605;50.092;9.182;2023-12-04T10:56:25;17.52;;;9.18;;
38851;SDS011;24605;50.092;9.182;2023-12-04T10:58:58;19.43;;;9.43;;
38851;SDS011;24605;50.092;9.182;2023-12-04T11:01:27;20.60;;;10.13;;
38851;SDS011;24605;50.092;9.182;2023-12-04T11:03:58;19.77;;;9.65;;
38851;SDS011;24605;50.092;9.182;2023-12-04T11:06:26;16.80;;;8.93;;
38851;SDS011;24605;50.092;9.182;2023-12-04T11:08:56;20.17;;;10.00;;
38851;SDS011;24605;50.092;9.182;2023-12-04T11:11:26;19.83;;;8.95;;
38851;SDS011;24605;50.092;9.182;2023-12-04T11:14:00;17.02;;;9.02;;
38851;SDS011;24605;50.092;9.182;2023-12-04T11:16:31;21.08;;;9.88;;
38851;SDS011;24605;50.092;9.182;2023-12-04T11:19:02;23.13;;;9.90;;
38851;SDS011;24605;50.092;9.182;2023-12-04T11:21:37;22.70;;;9.68;;
38851;SDS011;24605;50.092;9.182;2023-12-04T11:24:05;18.10;;;9.68;;
38851;SDS011;24605;50.092;9.182;2023-12-04T11:26:33;19.85;;;9.77;;
38851;SDS011;24605;50.092;9.182;2023-12-04T11:29:02;24.65;;;10.85;;
38851;SDS011;24605;50.092;9.182;2023-12-04T11:31:30;17.80;;;8.52;;
38851;SDS011;24605;50.092;9.182;2023-12-04T11:34:01;16.17;;;8.35;;
38851;SDS011;24605;50.092;9.182;2023-12-04T11:36:28;17.73;;;8.77;;
38851;SDS011;24605;50.092;9.182;2023-12-04T11:38:55;17.70;;;8.95;;
38851;SDS011;24605;50.092;9.182;2023-12-04T11:41:22;18.90;;;9.45;;
38851;SDS011;24605;50.092;9.182;2023-12-04T11:43:50;19.63;;;9.13;;
38851;SDS011;24605;50.092;9.182;2023-12-04T11:46:20;19.75;;;9.88;;
38851;SDS011;24605;50.092;9.182;2023-12-04T11:48:48;18.25;;;9.68;;
38851;SDS011;24605;50.092;9.182;2023-12-04T11:51:15;20.40;;;9.45;;
38851;SDS011;24605;50.092;9.182;2023-12-04T11:54:01;18.00;;;8.85;;
38851;SDS011;24605;50.092;9.182;2023-12-04T11:56:29;18.13;;;8.82;;
38851;SDS011;24605;50.092;9.182;2023-12-04T11:59:02;18.10;;;9.52;;
38851;SDS011;24605;50.092;9.182;2023-12-04T12:01:35;17.52;;;8.52;;
38851;SDS011;24605;50.092;9.182;2023-12-04T12:04:04;18.02;;;9.38;;
38851;SDS011;24605;50.092;9.182;2023-12-04T12:06:31;17.17;;;8.85;;
38851;SDS011;24605;50.092;9.182;2023-12-04T12:08:57;17.10;;;8.73;;
38851;SDS011;24605;50.092;9.182;2023-12-04T12:11:24;17.40;;;8.48;;
38851;SDS011;24605;50.092;9.182;2023-12-04T12:13:52;17.08;;;8.70;;
38851;SDS011;24605;50.092;9.182;2023-12-04T12:16:19;16.35;;;8.18;;
38851;SDS011;24605;50.092;9.182;2023-12-04T12:18:47;16.67;;;8.35;;
38851;SDS011;24605;50.092;9.182;2023-12-04T12:21:13;18.08;;;8.60;;
38851;SDS011;24605;50.092;9.182;2023-12-04T12:23:40;17.50;;;8.55;;
38851;SDS011;24605;50.092;9.182;2023-12-04T12:26:07;17.17;;;8.35;;
38851;SDS011;24605;50.092;9.182;2023-12-04T12:28:34;15.95;;;8.25;;
38851;SDS011;24605;50.092;9.182;2023-12-04T12:31:01;16.98;;;8.30;;
38851;SDS011;24605;50.092;9.182;2023-12-04T12:33:29;16.15;;;8.43;;
38851;SDS011;24605;50.092;9.182;2023-12-04T12:35:56;15.75;;;7.88;;
38851;SDS011;24605;50.092;9.182;2023-12-04T12:38:24;16.90;;;8.77;;
38851;SDS011;24605;50.092;9.182;2023-12-04T12:40:51;19.50;;;8.82;;
38851;SDS011;24605;50.092;9.182;2023-12-04T12:43:19;17.33;;;8.70;;
38851;SDS011;24605;50.092;9.182;2023-12-04T12:45:48;17.67;;;8.48;;
38851;SDS011;24605;50.092;9.182;2023-12-04T12:48:14;18.10;;;9.30;;
38851;SDS011;24605;50.092;9.182;2023-12-04T12:50:41;16.98;;;8.60;;
38851;SDS011;24605;50.092;9.182;2023-12-04T12:53:10;17.10;;;8.98;;
38851;SDS011;24605;50.092;9.182;2023-12-04T12:55:37;18.65;;;9.55;;
38851;SDS011;24605;50.092;9.182;2023-12-04T12:58:04;19.95;;;9.48;;
38851;SDS011;24605;50.092;9.182;2023-12-04T13:00:32;20.75;;;10.23;;
38851;SDS011;24605;50.092;9.182;2023-12-04T13:02:59;22.88;;;11.88;;
38851;SDS011;24605;50.092;9.182;2023-12-04T13:05:25;22.38;;;10.35;;
38851;SDS011;24605;50.092;9.182;2023-12-04T13:07:52;20.70;;;10.75;;
38851;SDS011;24605;50.092;9.182;2023-12-04T13:10:21;20.00;;;10.23;;
38851;SDS011;24605;50.092;9.182;2023-12-04T13:12:49;21.80;;;10.32;;
38851;SDS011;24605;50.092;9.182;2023-12-04T13:15:18;24.33;;;10.35;;
38851;SDS011;24605;50.092;9.182;2023-12-04T13:17:44;24.58;;;10.90;;
38851;SDS011;24605;50.092;9.182;2023-12-04T13:20:11;21.05;;;10.63;;
38851;SDS011;24605;50.092;9.182;2023-12-04T13:22:38;22.75;;;11.30;;
38851;SDS011;24605;50.092;9.182;2023-12-04T13:25:05;21.45;;;10.13;;
38851;SDS011;24605;50.092;9.182;2023-12-04T13:27:36;20.70;;;10.57;;
38851;SDS011;24605;50.092;9.182;2023-12-04T13:30:04;20.15;;;10.70;;
38851;SDS011;24605;50.092;9.182;2023-12-04T13:32:31;21.10;;;10.80;;
38851;SDS011;24605;50.092;9.182;2023-12-04T13:34:58;22.00;;;10.73;;
38851;SDS011;24605;50.092;9.182;2023-12-04T13:37:25;25.40;;;11.20;;
38851;SDS011;24605;50.092;9.182;2023-12-04T13:39:53;20.92;;;10.48;;
38851;SDS011;24605;50.092;9.182;2023-12-04T13:42:23;21.98;;;10.60;;
38851;SDS011;24605;50.092;9.182;2023-12-04T13:45:09;20.02;;;10.20;;
38851;SDS011;24605;50.092;9.182;2023-12-04T13:47:35;22.92;;;10.65;;
38851;SDS011;24605;50.092;9.182;2023-12-04T13:50:03;19.13;;;9.82;;
38851;SDS011;24605;50.092;9.182;2023-12-04T13:52:30;21.23;;;9.88;;
38851;SDS011;24605;50.092;9.182;2023-12-04T13:54:58;19.80;;;9.85;;
38851;SDS011;24605;50.092;9.182;2023-12-04T13:57:25;23.20;;;10.70;;
38851;SDS011;24605;50.092;9.182;2023-12-04T13:59:53;23.67;;;11.07;;
38851;SDS011;24605;50.092;9.182;2023-12-04T14:02:21;22.25;;;10.73;;
38851;SDS011;24605;50.092;9.182;2023-12-04T14:04:47;23.40;;;10.82;;
38851;SDS011;24605;50.092;9.182;2023-12-04T14:07:14;26.05;;;11.15;;
38851;SDS011;24605;50.092;9.182;2023-12-04T14:09:40;23.45;;;10.85;;
38851;SDS011;24605;50.092;9.182;2023-12-04T14:12:10;24.52;;;11.23;;
38851;SDS011;24605;50.092;9.182;2023-12-04T14:14:37;24.27;;;11.85;;
38851;SDS011;24605;50.092;9.182;2023-12-04T14:17:03;24.70;;;11.85;;
38851;SDS011;24605;50.092;9.182;2023-12-04T14:19:33;24.33;;;11.15;;
38851;SDS011;24605;50.092;9.182;2023-12-04T14:22:00;22.73;;;10.23;;
38851;SDS011;24605;50.092;9.182;2023-12-04T14:24:26;24.30;;;11.43;;
38851;SDS011;24605;50.092;9.182;2023-12-04T14:26:55;24.17;;;10.90;;